sensor_id;sensor_type;location;lat;lon;timestamp;P1;durP1;ratioP1;P2;durP2;ratioP2
46953;SDS011;32707;43.886;12.874;2022-07-23T00:00:59;5.47;;;0.73;;
46953;SDS011;32707;43.886;12.874;2022-07-23T00:03:25;2.38;;;0.98;;
46953;SDS011;32707;43.886;12.874;2022-07-23T00:05:51;2.40;;;1.00;;
46953;SDS011;32707;43.886;12.874;2022-07-23T00:08:16;4.43;;;0.90;;
46953;SDS011;32707;43.886;12.874;2022-07-23T00:10:42;1.65;;;1.00;;
46953;SDS011;32707;43.886;12.874;2022-07-23T00:13:07;1.98;;;0.93;;
46953;SDS011;32707;43.886;12.874;2022-07-23T00:15:33;1.20;;;0.63;;
46953;SDS011;32707;43.886;12.874;2022-07-23T00:17:59;11.50;;;1.85;;
46953;SDS011;32707;43.886;12.874;2022-07-23T00:20:24;4.00;;;1.00;;
46953;SDS011;32707;43.886;12.874;2022-07-23T00:22:51;1.98;;;0.77;;
46953;SDS011;32707;43.886;12.874;2022-07-23T00:25:18;8.75;;;1.33;;
46953;SDS011;32707;43.886;12.874;2022-07-23T00:27:44;6.82;;;0.85;;
46953;SDS011;32707;43.886;12.874;2022-07-23T00:30:10;10.77;;;1.08;;
46953;SDS011;32707;43.886;12.874;2022-07-23T00:32:49;1.10;;;1.00;;
46953;SDS011;32707;43.886;12.874;2022-07-23T00:35:21;2.20;;;1.05;;
46953;SDS011;32707;43.886;12.874;2022-07-23T00:37:49;10.95;;;0.90;;
46953;SDS011;32707;43.886;12.874;2022-07-23T00:40:15;0.80;;;0.80;;
46953;SDS011;32707;43.886;12.874;2022-07-23T00:42:40;11.02;;;1.35;;
46953;SDS011;32707;43.886;12.874;2022-07-23T00:45:06;3.13;;;1.27;;
46953;SDS011;32707;43.886;12.874;2022-07-23T00:47:33;4.60;;;1.05;;
46953;SDS011;32707;43.886;12.874;2022-07-23T00:49:59;4.40;;;0.90;;
46953;SDS011;32707;43.886;12.874;2022-07-23T00:52:24;2.08;;;1.27;;
46953;SDS011;32707;43.886;12.874;2022-07-23T00:54:50;7.18;;;1.33;;
46953;SDS011;32707;43.886;12.874;2022-07-23T00:57:16;1.80;;;1.20;;
46953;SDS011;32707;43.886;12.874;2022-07-23T00:59:42;4.68;;;0.85;;
46953;SDS011;32707;43.886;12.874;2022-07-23T01:02:07;5.82;;;1.13;;
46953;SDS011;32707;43.886;12.874;2022-07-23T01:04:33;1.42;;;1.05;;
46953;SDS011;32707;43.886;12.874;2022-07-23T01:06:59;4.55;;;0.80;;
46953;SDS011;32707;43.886;12.874;2022-07-23T01:09:25;4.95;;;0.82;;
46953;SDS011;32707;43.886;12.874;2022-07-23T01:11:51;2.60;;;0.93;;
46953;SDS011;32707;43.886;12.874;2022-07-23T01:14:20;2.33;;;1.00;;
46953;SDS011;32707;43.886;12.874;2022-07-23T01:16:47;1.20;;;0.85;;
46953;SDS011;32707;43.886;12.874;2022-07-23T01:19:14;8.68;;;0.90;;
46953;SDS011;32707;43.886;12.874;2022-07-23T01:21:44;5.07;;;1.20;;
46953;SDS011;32707;43.886;12.874;2022-07-23T01:24:15;0.93;;;0.90;;
46953;SDS011;32707;43.886;12.874;2022-07-23T01:26:42;6.60;;;1.02;;
46953;SDS011;32707;43.886;12.874;2022-07-23T01:29:09;1.83;;;0.88;;
46953;SDS011;32707;43.886;12.874;2022-07-23T01:31:35;2.95;;;0.82;;
46953;SDS011;32707;43.886;12.874;2022-07-23T01:34:01;6.03;;;1.02;;
46953;SDS011;32707;43.886;12.874;2022-07-23T01:36:28;3.90;;;0.93;;
46953;SDS011;32707;43.886;12.874;2022-07-23T01:38:53;1.20;;;0.77;;
46953;SDS011;32707;43.886;12.874;2022-07-23T01:41:19;8.32;;;1.00;;
46953;SDS011;32707;43.886;12.874;2022-07-23T01:43:45;1.67;;;1.25;;
46953;SDS011;32707;43.886;12.874;2022-07-23T01:46:10;1.80;;;1.05;;
46953;SDS011;32707;43.886;12.874;2022-07-23T01:48:39;1.65;;;1.02;;
46953;SDS011;32707;43.886;12.874;2022-07-23T01:51:05;3.50;;;1.02;;
46953;SDS011;32707;43.886;12.874;2022-07-23T01:53:30;6.05;;;1.02;;
46953;SDS011;32707;43.886;12.874;2022-07-23T01:55:59;2.45;;;1.35;;
46953;SDS011;32707;43.886;12.874;2022-07-23T01:58:25;1.73;;;0.95;;
46953;SDS011;32707;43.886;12.874;2022-07-23T02:00:52;1.52;;;0.90;;
46953;SDS011;32707;43.886;12.874;2022-07-23T02:03:18;2.15;;;1.00;;
46953;SDS011;32707;43.886;12.874;2022-07-23T02:05:44;6.70;;;0.82;;
46953;SDS011;32707;43.886;12.874;2022-07-23T02:08:09;6.28;;;1.13;;
46953;SDS011;32707;43.886;12.874;2022-07-23T02:10:35;2.10;;;0.90;;
46953;SDS011;32707;43.886;12.874;2022-07-23T02:13:00;2.03;;;1.02;;
46953;SDS011;32707;43.886;12.874;2022-07-23T02:15:26;2.42;;;1.20;;
46953;SDS011;32707;43.886;12.874;2022-07-23T02:17:51;2.13;;;1.05;;
46953;SDS011;32707;43.886;12.874;2022-07-23T02:20:17;3.95;;;1.20;;
46953;SDS011;32707;43.886;12.874;2022-07-23T02:22:43;1.75;;;0.98;;
46953;SDS011;32707;43.886;12.874;2022-07-23T02:25:08;4.13;;;1.17;;
46953;SDS011;32707;43.886;12.874;2022-07-23T02:27:34;6.03;;;0.95;;
46953;SDS011;32707;43.886;12.874;2022-07-23T02:30:00;2.05;;;0.90;;
46953;SDS011;32707;43.886;12.874;2022-07-23T02:32:27;9.73;;;1.20;;
46953;SDS011;32707;43.886;12.874;2022-07-23T02:34:53;1.75;;;1.23;;
46953;SDS011;32707;43.886;12.874;2022-07-23T02:37:18;1.40;;;1.05;;
46953;SDS011;32707;43.886;12.874;2022-07-23T02:39:44;7.07;;;1.48;;
46953;SDS011;32707;43.886;12.874;2022-07-23T02:42:10;2.47;;;0.98;;
46953;SDS011;32707;43.886;12.874;2022-07-23T02:44:35;10.68;;;1.27;;
46953;SDS011;32707;43.886;12.874;2022-07-23T02:47:01;1.15;;;1.05;;
46953;SDS011;32707;43.886;12.874;2022-07-23T02:49:26;9.48;;;1.40;;
46953;SDS011;32707;43.886;12.874;2022-07-23T02:51:52;1.73;;;0.90;;
46953;SDS011;32707;43.886;12.874;2022-07-23T02:54:17;5.88;;;0.88;;
46953;SDS011;32707;43.886;12.874;2022-07-23T02:56:43;2.65;;;1.08;;
46953;SDS011;32707;43.886;12.874;2022-07-23T02:59:09;8.70;;;1.00;;
46953;SDS011;32707;43.886;12.874;2022-07-23T03:01:34;3.97;;;1.27;;
46953;SDS011;32707;43.886;12.874;2022-07-23T03:04:00;3.13;;;1.15;;
46953;SDS011;32707;43.886;12.874;2022-07-23T03:06:26;4.38;;;1.25;;
46953;SDS011;32707;43.886;12.874;2022-07-23T03:08:51;5.70;;;1.35;;
46953;SDS011;32707;43.886;12.874;2022-07-23T03:11:17;1.80;;;1.00;;
46953;SDS011;32707;43.886;12.874;2022-07-23T03:13:42;4.68;;;1.40;;
46953;SDS011;32707;43.886;12.874;2022-07-23T03:16:08;3.28;;;1.25;;
46953;SDS011;32707;43.886;12.874;2022-07-23T03:18:34;1.27;;;1.17;;
46953;SDS011;32707;43.886;12.874;2022-07-23T03:21:00;4.55;;;1.67;;
46953;SDS011;32707;43.886;12.874;2022-07-23T03:23:25;4.07;;;1.48;;
46953;SDS011;32707;43.886;12.874;2022-07-23T03:25:51;4.15;;;1.35;;
46953;SDS011;32707;43.886;12.874;2022-07-23T03:28:17;3.38;;;1.30;;
46953;SDS011;32707;43.886;12.874;2022-07-23T03:30:44;1.55;;;1.45;;
46953;SDS011;32707;43.886;12.874;2022-07-23T03:36:15;4.05;;;1.23;;
46953;SDS011;32707;43.886;12.874;2022-07-23T03:38:41;8.73;;;1.63;;
46953;SDS011;32707;43.886;12.874;2022-07-23T03:41:06;8.13;;;1.65;;
46953;SDS011;32707;43.886;12.874;2022-07-23T03:43:32;2.95;;;1.35;;
46953;SDS011;32707;43.886;12.874;2022-07-23T03:45:58;4.38;;;1.63;;
46953;SDS011;32707;43.886;12.874;2022-07-23T03:48:23;5.13;;;1.35;;
46953;SDS011;32707;43.886;12.874;2022-07-23T03:50:49;3.60;;;1.77;;
46953;SDS011;32707;43.886;12.874;2022-07-23T03:53:14;3.95;;;1.05;;
46953;SDS011;32707;43.886;12.874;2022-07-23T03:55:40;3.85;;;1.45;;
46953;SDS011;32707;43.886;12.874;2022-07-23T03:58:06;3.15;;;1.42;;
46953;SDS011;32707;43.886;12.874;2022-07-23T04:00:34;2.70;;;1.67;;
46953;SDS011;32707;43.886;12.874;2022-07-23T04:02:59;7.80;;;1.90;;
46953;SDS011;32707;43.886;12.874;2022-07-23T04:05:25;2.75;;;1.63;;
46953;SDS011;32707;43.886;12.874;2022-07-23T04:07:50;7.53;;;2.10;;
46953;SDS011;32707;43.886;12.874;2022-07-23T04:10:16;3.60;;;1.83;;
46953;SDS011;32707;43.886;12.874;2022-07-23T04:12:42;9.05;;;1.77;;
46953;SDS011;32707;43.886;12.874;2022-07-23T04:15:08;4.78;;;1.92;;
46953;SDS011;32707;43.886;12.874;2022-07-23T04:17:34;19.73;;;3.05;;
46953;SDS011;32707;43.886;12.874;2022-07-23T04:19:59;1.58;;;1.27;;
46953;SDS011;32707;43.886;12.874;2022-07-23T04:22:25;2.15;;;1.58;;
46953;SDS011;32707;43.886;12.874;2022-07-23T04:24:51;8.80;;;2.13;;
46953;SDS011;32707;43.886;12.874;2022-07-23T04:27:16;5.10;;;1.80;;
46953;SDS011;32707;43.886;12.874;2022-07-23T04:33:03;4.05;;;2.28;;
46953;SDS011;32707;43.886;12.874;2022-07-23T04:35:32;12.48;;;2.30;;
46953;SDS011;32707;43.886;12.874;2022-07-23T04:37:58;7.18;;;2.22;;
46953;SDS011;32707;43.886;12.874;2022-07-23T04:40:24;11.43;;;2.03;;
46953;SDS011;32707;43.886;12.874;2022-07-23T04:42:50;6.38;;;2.53;;
46953;SDS011;32707;43.886;12.874;2022-07-23T04:45:16;10.85;;;2.25;;
46953;SDS011;32707;43.886;12.874;2022-07-23T04:47:41;2.03;;;1.80;;
46953;SDS011;32707;43.886;12.874;2022-07-23T04:50:07;8.88;;;2.17;;
46953;SDS011;32707;43.886;12.874;2022-07-23T04:52:32;5.90;;;2.30;;
46953;SDS011;32707;43.886;12.874;2022-07-23T04:54:58;4.57;;;2.20;;
46953;SDS011;32707;43.886;12.874;2022-07-23T04:57:23;3.78;;;2.42;;
46953;SDS011;32707;43.886;12.874;2022-07-23T04:59:49;4.95;;;2.10;;
46953;SDS011;32707;43.886;12.874;2022-07-23T05:02:14;2.53;;;2.17;;
46953;SDS011;32707;43.886;12.874;2022-07-23T05:04:40;4.47;;;2.42;;
46953;SDS011;32707;43.886;12.874;2022-07-23T05:07:05;5.05;;;2.50;;
46953;SDS011;32707;43.886;12.874;2022-07-23T05:09:31;7.72;;;2.95;;
46953;SDS011;32707;43.886;12.874;2022-07-23T05:11:57;10.20;;;2.95;;
46953;SDS011;32707;43.886;12.874;2022-07-23T05:14:22;6.78;;;3.22;;
46953;SDS011;32707;43.886;12.874;2022-07-23T05:16:48;11.88;;;3.10;;
46953;SDS011;32707;43.886;12.874;2022-07-23T05:19:13;7.57;;;3.35;;
46953;SDS011;32707;43.886;12.874;2022-07-23T05:21:39;7.40;;;3.15;;
46953;SDS011;32707;43.886;12.874;2022-07-23T05:24:04;4.80;;;2.83;;
46953;SDS011;32707;43.886;12.874;2022-07-23T05:26:31;11.57;;;2.85;;
46953;SDS011;32707;43.886;12.874;2022-07-23T05:28:56;4.28;;;2.88;;
46953;SDS011;32707;43.886;12.874;2022-07-23T05:31:22;5.50;;;2.83;;
46953;SDS011;32707;43.886;12.874;2022-07-23T05:33:47;4.60;;;2.67;;
46953;SDS011;32707;43.886;12.874;2022-07-23T05:36:13;13.23;;;3.30;;
46953;SDS011;32707;43.886;12.874;2022-07-23T05:38:38;14.85;;;3.30;;
46953;SDS011;32707;43.886;12.874;2022-07-23T05:41:04;7.60;;;3.22;;
46953;SDS011;32707;43.886;12.874;2022-07-23T05:43:29;6.78;;;3.10;;
46953;SDS011;32707;43.886;12.874;2022-07-23T05:45:55;14.65;;;2.95;;
46953;SDS011;32707;43.886;12.874;2022-07-23T05:48:20;7.57;;;2.92;;
46953;SDS011;32707;43.886;12.874;2022-07-23T05:50:46;3.70;;;2.67;;
46953;SDS011;32707;43.886;12.874;2022-07-23T05:53:12;5.93;;;2.67;;
46953;SDS011;32707;43.886;12.874;2022-07-23T05:55:38;3.35;;;2.47;;
46953;SDS011;32707;43.886;12.874;2022-07-23T05:58:04;5.15;;;2.75;;
46953;SDS011;32707;43.886;12.874;2022-07-23T06:00:29;4.13;;;2.78;;
46953;SDS011;32707;43.886;12.874;2022-07-23T06:02:56;4.53;;;2.58;;
46953;SDS011;32707;43.886;12.874;2022-07-23T06:05:22;4.72;;;2.65;;
46953;SDS011;32707;43.886;12.874;2022-07-23T06:07:48;3.97;;;2.42;;
46953;SDS011;32707;43.886;12.874;2022-07-23T06:10:14;4.65;;;2.25;;
46953;SDS011;32707;43.886;12.874;2022-07-23T06:12:39;3.83;;;2.45;;
46953;SDS011;32707;43.886;12.874;2022-07-23T06:15:06;6.75;;;2.22;;
46953;SDS011;32707;43.886;12.874;2022-07-23T06:17:32;5.78;;;2.35;;
46953;SDS011;32707;43.886;12.874;2022-07-23T06:19:57;5.82;;;2.60;;
46953;SDS011;32707;43.886;12.874;2022-07-23T06:22:23;6.50;;;2.25;;
46953;SDS011;32707;43.886;12.874;2022-07-23T06:24:49;10.35;;;2.42;;
46953;SDS011;32707;43.886;12.874;2022-07-23T06:27:16;5.63;;;2.50;;
46953;SDS011;32707;43.886;12.874;2022-07-23T06:29:42;5.47;;;3.00;;
46953;SDS011;32707;43.886;12.874;2022-07-23T06:32:07;5.57;;;2.40;;
46953;SDS011;32707;43.886;12.874;2022-07-23T06:34:33;5.15;;;3.10;;
46953;SDS011;32707;43.886;12.874;2022-07-23T06:36:59;8.48;;;2.63;;
46953;SDS011;32707;43.886;12.874;2022-07-23T06:39:25;3.58;;;2.28;;
46953;SDS011;32707;43.886;12.874;2022-07-23T06:41:51;8.40;;;2.08;;
46953;SDS011;32707;43.886;12.874;2022-07-23T06:44:17;2.85;;;2.50;;
46953;SDS011;32707;43.886;12.874;2022-07-23T06:46:43;7.68;;;2.58;;
46953;SDS011;32707;43.886;12.874;2022-07-23T06:49:08;3.20;;;2.00;;
46953;SDS011;32707;43.886;12.874;2022-07-23T06:51:34;4.68;;;1.88;;
46953;SDS011;32707;43.886;12.874;2022-07-23T06:54:00;3.67;;;2.40;;
46953;SDS011;32707;43.886;12.874;2022-07-23T06:56:25;5.68;;;2.70;;
46953;SDS011;32707;43.886;12.874;2022-07-23T06:58:51;4.20;;;2.10;;
46953;SDS011;32707;43.886;12.874;2022-07-23T07:01:17;3.58;;;2.50;;
46953;SDS011;32707;43.886;12.874;2022-07-23T07:03:42;3.65;;;2.60;;
46953;SDS011;32707;43.886;12.874;2022-07-23T07:06:08;6.72;;;2.33;;
46953;SDS011;32707;43.886;12.874;2022-07-23T07:08:34;6.30;;;2.38;;
46953;SDS011;32707;43.886;12.874;2022-07-23T07:10:59;17.27;;;2.55;;
46953;SDS011;32707;43.886;12.874;2022-07-23T07:13:26;6.93;;;2.53;;
46953;SDS011;32707;43.886;12.874;2022-07-23T07:15:54;16.52;;;2.85;;
46953;SDS011;32707;43.886;12.874;2022-07-23T07:18:20;7.88;;;3.25;;
46953;SDS011;32707;43.886;12.874;2022-07-23T07:20:45;14.90;;;2.58;;
46953;SDS011;32707;43.886;12.874;2022-07-23T07:23:11;4.47;;;1.92;;
46953;SDS011;32707;43.886;12.874;2022-07-23T07:25:37;3.58;;;2.17;;
46953;SDS011;32707;43.886;12.874;2022-07-23T07:28:03;10.13;;;2.35;;
46953;SDS011;32707;43.886;12.874;2022-07-23T07:30:29;9.18;;;2.47;;
46953;SDS011;32707;43.886;12.874;2022-07-23T07:32:54;8.00;;;2.08;;
46953;SDS011;32707;43.886;12.874;2022-07-23T07:35:20;5.07;;;1.75;;
46953;SDS011;32707;43.886;12.874;2022-07-23T07:37:46;10.52;;;2.15;;
46953;SDS011;32707;43.886;12.874;2022-07-23T07:40:11;6.38;;;1.98;;
46953;SDS011;32707;43.886;12.874;2022-07-23T07:42:46;4.78;;;2.13;;
46953;SDS011;32707;43.886;12.874;2022-07-23T07:45:12;4.88;;;1.98;;
46953;SDS011;32707;43.886;12.874;2022-07-23T07:47:38;3.67;;;1.90;;
46953;SDS011;32707;43.886;12.874;2022-07-23T07:50:03;2.40;;;1.67;;
46953;SDS011;32707;43.886;12.874;2022-07-23T07:52:29;3.20;;;1.90;;
46953;SDS011;32707;43.886;12.874;2022-07-23T07:54:54;4.40;;;1.98;;
46953;SDS011;32707;43.886;12.874;2022-07-23T07:57:20;13.30;;;2.38;;
46953;SDS011;32707;43.886;12.874;2022-07-23T07:59:45;3.53;;;1.95;;
46953;SDS011;32707;43.886;12.874;2022-07-23T08:02:11;7.53;;;2.45;;
46953;SDS011;32707;43.886;12.874;2022-07-23T08:04:36;6.07;;;2.15;;
46953;SDS011;32707;43.886;12.874;2022-07-23T08:07:02;6.95;;;1.80;;
46953;SDS011;32707;43.886;12.874;2022-07-23T08:09:27;2.97;;;1.92;;
46953;SDS011;32707;43.886;12.874;2022-07-23T08:11:53;2.53;;;1.77;;
46953;SDS011;32707;43.886;12.874;2022-07-23T08:14:18;4.57;;;2.28;;
46953;SDS011;32707;43.886;12.874;2022-07-23T08:16:44;2.47;;;1.55;;
46953;SDS011;32707;43.886;12.874;2022-07-23T08:19:09;4.38;;;2.08;;
46953;SDS011;32707;43.886;12.874;2022-07-23T08:21:35;7.70;;;1.92;;
46953;SDS011;32707;43.886;12.874;2022-07-23T08:24:01;2.25;;;1.98;;
46953;SDS011;32707;43.886;12.874;2022-07-23T08:26:26;11.93;;;2.30;;
46953;SDS011;32707;43.886;12.874;2022-07-23T08:28:51;5.10;;;1.90;;
46953;SDS011;32707;43.886;12.874;2022-07-23T08:31:17;2.55;;;1.90;;
46953;SDS011;32707;43.886;12.874;2022-07-23T08:33:43;1.83;;;1.73;;
46953;SDS011;32707;43.886;12.874;2022-07-23T08:36:09;8.40;;;2.65;;
46953;SDS011;32707;43.886;12.874;2022-07-23T08:38:34;11.30;;;2.20;;
46953;SDS011;32707;43.886;12.874;2022-07-23T08:41:00;3.90;;;2.30;;
46953;SDS011;32707;43.886;12.874;2022-07-23T08:43:28;2.75;;;2.33;;
46953;SDS011;32707;43.886;12.874;2022-07-23T08:45:56;5.78;;;1.95;;
46953;SDS011;32707;43.886;12.874;2022-07-23T08:48:25;2.10;;;1.88;;
46953;SDS011;32707;43.886;12.874;2022-07-23T08:50:53;4.20;;;2.05;;
46953;SDS011;32707;43.886;12.874;2022-07-23T08:53:21;6.63;;;2.28;;
46953;SDS011;32707;43.886;12.874;2022-07-23T08:55:49;4.25;;;2.20;;
46953;SDS011;32707;43.886;12.874;2022-07-23T08:58:16;2.85;;;1.75;;
46953;SDS011;32707;43.886;12.874;2022-07-23T09:00:43;3.85;;;2.22;;
46953;SDS011;32707;43.886;12.874;2022-07-23T09:03:19;8.02;;;2.53;;
46953;SDS011;32707;43.886;12.874;2022-07-23T09:05:46;3.30;;;2.45;;
46953;SDS011;32707;43.886;12.874;2022-07-23T09:08:14;2.65;;;2.05;;
46953;SDS011;32707;43.886;12.874;2022-07-23T09:10:43;15.20;;;2.58;;
46953;SDS011;32707;43.886;12.874;2022-07-23T09:15:50;10.00;;;2.53;;
46953;SDS011;32707;43.886;12.874;2022-07-23T09:18:16;12.65;;;2.75;;
46953;SDS011;32707;43.886;12.874;2022-07-23T09:21:09;4.70;;;2.35;;
46953;SDS011;32707;43.886;12.874;2022-07-23T09:23:48;3.63;;;2.40;;
46953;SDS011;32707;43.886;12.874;2022-07-23T09:28:51;9.65;;;2.60;;
46953;SDS011;32707;43.886;12.874;2022-07-23T09:31:18;6.72;;;2.45;;
46953;SDS011;32707;43.886;12.874;2022-07-23T09:33:43;6.43;;;2.40;;
46953;SDS011;32707;43.886;12.874;2022-07-23T09:36:12;4.25;;;2.42;;
46953;SDS011;32707;43.886;12.874;2022-07-23T09:38:48;2.67;;;2.20;;
46953;SDS011;32707;43.886;12.874;2022-07-23T09:41:15;4.95;;;2.60;;
46953;SDS011;32707;43.886;12.874;2022-07-23T09:43:41;5.97;;;2.47;;
46953;SDS011;32707;43.886;12.874;2022-07-23T09:48:52;5.22;;;2.33;;
46953;SDS011;32707;43.886;12.874;2022-07-23T09:51:19;2.20;;;2.10;;
46953;SDS011;32707;43.886;12.874;2022-07-23T09:54:03;9.73;;;2.55;;
46953;SDS011;32707;43.886;12.874;2022-07-23T09:56:29;4.07;;;2.00;;
46953;SDS011;32707;43.886;12.874;2022-07-23T09:58:56;7.38;;;2.60;;
46953;SDS011;32707;43.886;12.874;2022-07-23T10:01:51;3.08;;;2.30;;
46953;SDS011;32707;43.886;12.874;2022-07-23T10:04:18;7.68;;;1.95;;
46953;SDS011;32707;43.886;12.874;2022-07-23T10:06:48;3.90;;;2.20;;
46953;SDS011;32707;43.886;12.874;2022-07-23T10:09:16;4.25;;;2.20;;
46953;SDS011;32707;43.886;12.874;2022-07-23T10:11:49;6.93;;;2.28;;
46953;SDS011;32707;43.886;12.874;2022-07-23T10:14:15;4.40;;;2.20;;
46953;SDS011;32707;43.886;12.874;2022-07-23T10:16:41;10.65;;;2.78;;
46953;SDS011;32707;43.886;12.874;2022-07-23T10:19:09;2.63;;;2.22;;
46953;SDS011;32707;43.886;12.874;2022-07-23T10:21:49;7.50;;;2.42;;
46953;SDS011;32707;43.886;12.874;2022-07-23T10:24:22;8.63;;;2.30;;
46953;SDS011;32707;43.886;12.874;2022-07-23T10:30:08;3.10;;;2.72;;
46953;SDS011;32707;43.886;12.874;2022-07-23T10:32:40;7.63;;;2.45;;
46953;SDS011;32707;43.886;12.874;2022-07-23T10:35:30;3.03;;;2.08;;
46953;SDS011;32707;43.886;12.874;2022-07-23T10:38:13;2.78;;;2.17;;
46953;SDS011;32707;43.886;12.874;2022-07-23T10:43:29;3.90;;;1.85;;
46953;SDS011;32707;43.886;12.874;2022-07-23T10:45:57;3.95;;;2.28;;
46953;SDS011;32707;43.886;12.874;2022-07-23T10:48:44;5.90;;;2.60;;
46953;SDS011;32707;43.886;12.874;2022-07-23T10:51:14;3.40;;;2.25;;
46953;SDS011;32707;43.886;12.874;2022-07-23T10:56:16;10.27;;;2.38;;
46953;SDS011;32707;43.886;12.874;2022-07-23T10:59:03;3.63;;;2.35;;
46953;SDS011;32707;43.886;12.874;2022-07-23T11:01:41;5.95;;;2.35;;
46953;SDS011;32707;43.886;12.874;2022-07-23T11:04:07;2.83;;;2.10;;
46953;SDS011;32707;43.886;12.874;2022-07-23T11:07:33;1.75;;;1.65;;
46953;SDS011;32707;43.886;12.874;2022-07-23T11:09:27;7.78;;;2.35;;
46953;SDS011;32707;43.886;12.874;2022-07-23T11:17:31;3.15;;;2.55;;
46953;SDS011;32707;43.886;12.874;2022-07-23T11:20:31;6.28;;;2.40;;
46953;SDS011;32707;43.886;12.874;2022-07-23T11:22:51;6.15;;;2.08;;
46953;SDS011;32707;43.886;12.874;2022-07-23T11:27:48;4.68;;;3.00;;
46953;SDS011;32707;43.886;12.874;2022-07-23T11:30:38;6.70;;;2.13;;
46953;SDS011;32707;43.886;12.874;2022-07-23T11:35:41;4.07;;;2.42;;
46953;SDS011;32707;43.886;12.874;2022-07-23T11:38:13;5.25;;;2.58;;
46953;SDS011;32707;43.886;12.874;2022-07-23T11:40:44;4.30;;;2.38;;
46953;SDS011;32707;43.886;12.874;2022-07-23T11:43:12;2.55;;;2.25;;
46953;SDS011;32707;43.886;12.874;2022-07-23T11:45:42;3.55;;;2.33;;
46953;SDS011;32707;43.886;12.874;2022-07-23T11:48:15;7.50;;;2.58;;
46953;SDS011;32707;43.886;12.874;2022-07-23T11:50:52;4.50;;;2.75;;
46953;SDS011;32707;43.886;12.874;2022-07-23T11:53:29;4.10;;;2.33;;
46953;SDS011;32707;43.886;12.874;2022-07-23T11:56:03;12.35;;;2.50;;
46953;SDS011;32707;43.886;12.874;2022-07-23T11:58:30;3.17;;;1.90;;
46953;SDS011;32707;43.886;12.874;2022-07-23T12:00:56;5.50;;;2.92;;
46953;SDS011;32707;43.886;12.874;2022-07-23T12:03:24;6.40;;;2.60;;
46953;SDS011;32707;43.886;12.874;2022-07-23T12:05:55;3.78;;;2.00;;
46953;SDS011;32707;43.886;12.874;2022-07-23T12:08:22;8.85;;;2.58;;
46953;SDS011;32707;43.886;12.874;2022-07-23T12:10:48;5.20;;;2.40;;
46953;SDS011;32707;43.886;12.874;2022-07-23T12:13:17;5.45;;;2.28;;
46953;SDS011;32707;43.886;12.874;2022-07-23T12:15:49;3.83;;;2.38;;
46953;SDS011;32707;43.886;12.874;2022-07-23T12:18:26;8.60;;;2.45;;
46953;SDS011;32707;43.886;12.874;2022-07-23T12:20:53;9.70;;;2.50;;
46953;SDS011;32707;43.886;12.874;2022-07-23T12:23:22;3.58;;;2.25;;
46953;SDS011;32707;43.886;12.874;2022-07-23T12:26:00;5.43;;;1.92;;
46953;SDS011;32707;43.886;12.874;2022-07-23T12:28:27;8.00;;;2.00;;
46953;SDS011;32707;43.886;12.874;2022-07-23T12:30:55;3.08;;;2.10;;
46953;SDS011;32707;43.886;12.874;2022-07-23T12:33:23;7.45;;;2.22;;
46953;SDS011;32707;43.886;12.874;2022-07-23T12:35:52;4.13;;;2.30;;
46953;SDS011;32707;43.886;12.874;2022-07-23T12:38:39;2.58;;;2.10;;
46953;SDS011;32707;43.886;12.874;2022-07-23T12:43:40;3.38;;;2.15;;
46953;SDS011;32707;43.886;12.874;2022-07-23T12:46:08;4.65;;;2.28;;
46953;SDS011;32707;43.886;12.874;2022-07-23T12:51:26;2.05;;;1.85;;
46953;SDS011;32707;43.886;12.874;2022-07-23T12:53:55;8.10;;;2.35;;
46953;SDS011;32707;43.886;12.874;2022-07-23T12:56:31;6.30;;;2.95;;
46953;SDS011;32707;43.886;12.874;2022-07-23T12:59:13;4.07;;;2.55;;
46953;SDS011;32707;43.886;12.874;2022-07-23T13:01:42;6.43;;;2.42;;
46953;SDS011;32707;43.886;12.874;2022-07-23T13:06:51;4.88;;;2.60;;
46953;SDS011;32707;43.886;12.874;2022-07-23T13:11:58;3.22;;;2.22;;
46953;SDS011;32707;43.886;12.874;2022-07-23T13:14:25;3.08;;;2.15;;
46953;SDS011;32707;43.886;12.874;2022-07-23T13:16:52;6.95;;;2.58;;
46953;SDS011;32707;43.886;12.874;2022-07-23T13:19:18;2.15;;;1.95;;
46953;SDS011;32707;43.886;12.874;2022-07-23T13:21:58;4.35;;;2.15;;
46953;SDS011;32707;43.886;12.874;2022-07-23T13:24:31;8.32;;;2.55;;
46953;SDS011;32707;43.886;12.874;2022-07-23T13:26:56;4.35;;;2.13;;
46953;SDS011;32707;43.886;12.874;2022-07-23T13:29:24;9.38;;;2.30;;
46953;SDS011;32707;43.886;12.874;2022-07-23T13:31:58;6.13;;;2.25;;
46953;SDS011;32707;43.886;12.874;2022-07-23T13:34:23;4.55;;;2.33;;
46953;SDS011;32707;43.886;12.874;2022-07-23T13:36:49;6.20;;;2.30;;
46953;SDS011;32707;43.886;12.874;2022-07-23T13:39:14;4.85;;;2.15;;
46953;SDS011;32707;43.886;12.874;2022-07-23T13:41:40;2.90;;;2.53;;
46953;SDS011;32707;43.886;12.874;2022-07-23T13:44:06;5.10;;;2.50;;
46953;SDS011;32707;43.886;12.874;2022-07-23T13:46:31;4.10;;;3.08;;
46953;SDS011;32707;43.886;12.874;2022-07-23T13:48:57;3.25;;;2.00;;
46953;SDS011;32707;43.886;12.874;2022-07-23T13:51:25;8.88;;;2.25;;
46953;SDS011;32707;43.886;12.874;2022-07-23T13:53:51;9.88;;;2.58;;
46953;SDS011;32707;43.886;12.874;2022-07-23T13:56:18;3.33;;;2.20;;
46953;SDS011;32707;43.886;12.874;2022-07-23T13:58:44;12.73;;;2.53;;
46953;SDS011;32707;43.886;12.874;2022-07-23T14:01:10;3.47;;;2.28;;
46953;SDS011;32707;43.886;12.874;2022-07-23T14:03:38;3.10;;;2.08;;
46953;SDS011;32707;43.886;12.874;2022-07-23T14:06:07;5.57;;;2.40;;
46953;SDS011;32707;43.886;12.874;2022-07-23T14:08:32;4.95;;;2.28;;
46953;SDS011;32707;43.886;12.874;2022-07-23T14:10:58;2.40;;;2.00;;
46953;SDS011;32707;43.886;12.874;2022-07-23T14:13:26;5.53;;;1.92;;
46953;SDS011;32707;43.886;12.874;2022-07-23T14:15:52;8.40;;;1.90;;
46953;SDS011;32707;43.886;12.874;2022-07-23T14:18:18;10.18;;;2.63;;
46953;SDS011;32707;43.886;12.874;2022-07-23T14:20:44;2.53;;;1.83;;
46953;SDS011;32707;43.886;12.874;2022-07-23T14:23:15;4.05;;;2.08;;
46953;SDS011;32707;43.886;12.874;2022-07-23T14:25:49;4.65;;;2.20;;
46953;SDS011;32707;43.886;12.874;2022-07-23T14:28:18;6.13;;;1.95;;
46953;SDS011;32707;43.886;12.874;2022-07-23T14:30:43;8.57;;;2.20;;
46953;SDS011;32707;43.886;12.874;2022-07-23T14:33:09;4.13;;;2.00;;
46953;SDS011;32707;43.886;12.874;2022-07-23T14:35:39;4.28;;;2.17;;
46953;SDS011;32707;43.886;12.874;2022-07-23T14:38:05;7.90;;;2.00;;
46953;SDS011;32707;43.886;12.874;2022-07-23T14:40:30;7.75;;;1.80;;
46953;SDS011;32707;43.886;12.874;2022-07-23T14:42:56;3.63;;;2.08;;
46953;SDS011;32707;43.886;12.874;2022-07-23T14:45:21;7.75;;;2.13;;
46953;SDS011;32707;43.886;12.874;2022-07-23T14:47:52;5.65;;;2.10;;
46953;SDS011;32707;43.886;12.874;2022-07-23T14:50:19;7.30;;;2.17;;
46953;SDS011;32707;43.886;12.874;2022-07-23T14:52:45;2.53;;;1.90;;
46953;SDS011;32707;43.886;12.874;2022-07-23T14:55:11;10.18;;;2.25;;
46953;SDS011;32707;43.886;12.874;2022-07-23T14:57:37;4.32;;;2.03;;
46953;SDS011;32707;43.886;12.874;2022-07-23T15:00:03;5.40;;;1.92;;
46953;SDS011;32707;43.886;12.874;2022-07-23T15:02:30;1.98;;;1.77;;
46953;SDS011;32707;43.886;12.874;2022-07-23T15:04:56;9.95;;;2.15;;
46953;SDS011;32707;43.886;12.874;2022-07-23T15:07:26;5.93;;;1.77;;
46953;SDS011;32707;43.886;12.874;2022-07-23T15:09:52;5.70;;;2.00;;
46953;SDS011;32707;43.886;12.874;2022-07-23T15:12:20;2.65;;;1.63;;
46953;SDS011;32707;43.886;12.874;2022-07-23T15:14:46;7.00;;;1.67;;
46953;SDS011;32707;43.886;12.874;2022-07-23T15:17:12;17.13;;;2.65;;
46953;SDS011;32707;43.886;12.874;2022-07-23T15:19:37;5.65;;;2.17;;